Archival Weather

Dane County Rgnl/Truax Fld

Madison, Wisconsin (KMSN)

Report from: Sunday, April 21, 2024 3:53 PM CDT
Current time: Tuesday, May 21, 2024 12:43 PM CDT

Current weather – Weather history – Daily summaries
Weather forecast

Temperature13.3°C (55.9°F)
Dew point-5.0°C (23.0°F)
Winds 10 kts (5.1 m/s, 11.5 mph) West (280°)
Wind gusts 18 kts (9.3 m/s, 20.7 mph)
Visibility10 mi. (16.1 km)
Clouds Few clouds 7,000 ft. (2,134 m)
Altimeter30.09 in.Hg (1019 mB)
Relative humidity28 %
Density altitude-339 ft. (-103 m)
Sea-level pressure101.9 kPa (1019 mB, 30.10 in.Hg)
Remarks System requires maintenance
Automated weather observing station with precipitation discriminator
Pressure falling
Flight conditions Visual Meteorological Conditions
Raw dataKMSN 212053Z 28010G18KT 10SM FEW070 13/M05 A3009 RMK AO2 SLP194 T01331050 57019 $
An error has occurred. This application may no longer respond until reloaded. Reload 🗙